Time;durP1;ratioP1;P1;durP2;ratioP2;P2;SDS_P1;SDS_P2;PMS_P1;PMS_P2;Temp;Humidity;BMP_temperature;BMP_pressure;BME280_temperature;BME280_humidity;BME280_pressure;Samples;Min_cycle;Max_cycle;Signal;HPM_P1;HPM_P2
2023/09/23 00:01:26;;;;;;;1.93;0.60;;;;;;;13.17;100.00;99849.00;4966627;28;20190;-77
2023/09/23 00:03:51;;;;;;;0.63;0.40;;;;;;;13.14;100.00;99841.31;4963098;28;20239;-76
2023/09/23 00:06:20;;;;;;;0.97;0.60;;;;;;;13.13;100.00;99846.53;4964740;28;20220;-76
2023/09/23 00:08:46;;;;;;;0.80;0.60;;;;;;;13.08;100.00;99850.09;4961434;28;20196;-76
2023/09/23 00:11:12;;;;;;;0.57;0.50;;;;;;;13.05;100.00;99849.34;4962386;28;20257;-76
2023/09/23 00:13:37;;;;;;;0.70;0.60;;;;;;;13.02;100.00;99850.28;4967297;28;20284;-76
2023/09/23 00:16:16;;;;;;;0.97;0.50;;;;;;;13.00;100.00;99848.63;4968154;28;20201;-77
2023/09/23 00:18:43;;;;;;;0.60;0.60;;;;;;;12.95;100.00;99857.38;4962884;28;20256;-76
2023/09/23 00:21:08;;;;;;;1.80;0.67;;;;;;;12.96;100.00;99855.63;4964564;28;20223;-78
2023/09/23 00:23:34;;;;;;;0.90;0.60;;;;;;;12.90;100.00;99851.44;4961170;28;20196;-76
2023/09/23 00:26:01;;;;;;;1.37;0.40;;;;;;;12.89;100.00;99848.91;4978357;28;20211;-76
2023/09/23 00:28:28;;;;;;;1.10;0.50;;;;;;;12.88;100.00;99852.38;4967926;28;20192;-77
2023/09/23 00:30:53;;;;;;;0.90;0.50;;;;;;;12.87;100.00;99853.28;4968879;28;20273;-77
2023/09/23 00:33:19;;;;;;;1.00;0.60;;;;;;;12.83;100.00;99847.31;4956902;28;20286;-76
2023/09/23 00:35:44;;;;;;;1.20;0.50;;;;;;;12.85;100.00;99862.84;4954632;28;20701;-78
2023/09/23 00:38:11;;;;;;;0.97;0.50;;;;;;;12.83;100.00;99860.28;4962767;28;20965;-77
2023/09/23 00:40:38;;;;;;;0.70;0.50;;;;;;;12.79;100.00;99864.69;4964044;28;20184;-78
2023/09/23 00:43:07;;;;;;;0.70;0.50;;;;;;;12.78;100.00;99859.53;4966070;28;20571;-78
2023/09/23 00:45:36;;;;;;;1.03;0.73;;;;;;;12.75;100.00;99870.88;4969300;28;20617;-77
2023/09/23 00:48:01;;;;;;;0.63;0.50;;;;;;;12.72;100.00;99870.94;4960470;28;20219;-77
2023/09/23 00:50:29;;;;;;;0.47;0.40;;;;;;;12.71;100.00;99876.16;4965668;28;20225;-78
2023/09/23 00:52:55;;;;;;;0.70;0.60;;;;;;;12.69;100.00;99870.19;4962953;28;20228;-77
2023/09/23 00:55:22;;;;;;;0.60;0.50;;;;;;;12.68;100.00;99869.31;4961109;28;20698;-77
2023/09/23 00:57:48;;;;;;;0.40;0.40;;;;;;;12.70;100.00;99872.72;4957737;28;20232;-77
2023/09/23 01:00:17;;;;;;;0.90;0.50;;;;;;;12.70;100.00;99872.72;4971127;28;20198;-78
2023/09/23 01:02:42;;;;;;;0.50;0.50;;;;;;;12.71;100.00;99869.22;4961564;28;20239;-77
2023/09/23 01:05:08;;;;;;;0.57;0.57;;;;;;;12.70;100.00;99877.06;4967152;28;20253;-78
2023/09/23 01:07:33;;;;;;;0.50;0.47;;;;;;;12.65;100.00;99880.63;4962905;28;20693;-77
2023/09/23 01:09:59;;;;;;;0.57;0.50;;;;;;;12.64;100.00;99881.50;4963632;28;20198;-78
2023/09/23 01:12:25;;;;;;;1.33;0.53;;;;;;;12.62;100.00;99880.69;4964730;28;20190;-76
2023/09/23 01:14:51;;;;;;;3.50;0.70;;;;;;;12.59;100.00;99887.72;4967098;28;20236;-78
2023/09/23 01:17:17;;;;;;;0.57;0.57;;;;;;;12.56;100.00;99867.00;4962868;28;20359;-78
2023/09/23 01:19:43;;;;;;;1.10;1.00;;;;;;;12.55;100.00;99876.56;4966869;28;20200;-78
2023/09/23 01:22:08;;;;;;;0.80;0.53;;;;;;;12.52;100.00;99878.34;4963827;28;20215;-76
2023/09/23 01:24:34;;;;;;;1.53;0.60;;;;;;;12.50;100.00;99879.22;4960818;28;20229;-79
2023/09/23 01:27:00;;;;;;;0.77;0.50;;;;;;;12.48;100.00;99883.59;4962808;28;20334;-76
2023/09/23 01:29:26;;;;;;;1.40;0.70;;;;;;;12.47;100.00;99881.06;4965608;28;20226;-78
2023/09/23 01:32:15;;;;;;;0.80;0.60;;;;;;;12.44;100.00;99883.72;4958618;28;20195;-77
2023/09/23 01:34:41;;;;;;;0.70;0.60;;;;;;;12.40;100.00;99897.69;4963938;28;20278;-77
2023/09/23 01:37:06;;;;;;;0.67;0.50;;;;;;;12.38;100.00;99897.69;4965555;28;20305;-77
2023/09/23 01:39:32;;;;;;;1.80;0.60;;;;;;;12.35;100.00;99903.81;4967068;28;20194;-77
2023/09/23 01:41:57;;;;;;;2.03;0.87;;;;;;;12.33;100.00;99902.13;4963681;28;20737;-78
2023/09/23 01:44:22;;;;;;;2.13;0.70;;;;;;;12.31;100.00;99904.75;4966449;28;20709;-77
2023/09/23 01:46:48;;;;;;;0.70;0.57;;;;;;;12.29;100.00;99909.13;4971128;28;20217;-77
2023/09/23 01:49:16;;;;;;;2.03;0.60;;;;;;;12.29;100.00;99908.28;4961546;28;20248;-76
2023/09/23 01:51:41;;;;;;;1.83;0.67;;;;;;;12.28;100.00;99904.81;4955048;28;20661;-78
2023/09/23 01:54:07;;;;;;;1.00;0.50;;;;;;;12.27;100.00;99912.66;4958641;28;20183;-78
2023/09/23 01:56:34;;;;;;;0.70;0.53;;;;;;;12.26;100.00;99908.34;4959863;28;21068;-78
2023/09/23 01:58:59;;;;;;;0.50;0.50;;;;;;;12.24;100.00;99908.41;4965432;28;20778;-77
2023/09/23 02:01:24;;;;;;;1.00;0.70;;;;;;;12.22;100.00;99917.94;4963024;28;20186;-77
2023/09/23 02:03:51;;;;;;;1.17;0.63;;;;;;;12.22;100.00;99917.94;4952115;28;20623;-77
2023/09/23 02:06:17;;;;;;;1.03;0.50;;;;;;;12.23;100.00;99916.19;4977558;28;20285;-78
2023/09/23 02:08:42;;;;;;;0.80;0.70;;;;;;;12.19;100.00;99928.38;4960401;28;20192;-78
2023/09/23 02:11:08;;;;;;;1.07;0.57;;;;;;;12.16;100.00;99921.53;4971759;28;20190;-77
2023/09/23 02:13:36;;;;;;;1.17;0.70;;;;;;;12.14;100.00;99933.69;4974366;28;20286;-79
2023/09/23 02:16:04;;;;;;;0.80;0.63;;;;;;;12.13;100.00;99939.75;4960483;28;20226;-78
2023/09/23 02:18:30;;;;;;;2.20;0.77;;;;;;;12.16;100.00;99936.22;4961702;28;20212;-76
2023/09/23 02:20:56;;;;;;;0.70;0.60;;;;;;;12.18;100.00;99939.66;4966183;28;20339;-77
2023/09/23 02:23:22;;;;;;;0.90;0.50;;;;;;;12.14;100.00;99944.06;4972186;28;20196;-78
2023/09/23 02:25:49;;;;;;;0.63;0.60;;;;;;;12.13;100.00;99944.06;4967585;28;20285;-76
2023/09/23 02:28:14;;;;;;;0.47;0.40;;;;;;;12.10;100.00;99947.59;4957763;28;20239;-78
2023/09/23 02:30:41;;;;;;;0.97;0.60;;;;;;;12.07;100.00;99947.66;4955007;28;20191;-78
2023/09/23 02:33:06;;;;;;;0.93;0.60;;;;;;;12.01;100.00;99934.81;4971726;28;20238;-78
2023/09/23 02:35:33;;;;;;;0.87;0.50;;;;;;;11.98;100.00;99935.72;4963596;28;20226;-78
2023/09/23 02:37:59;;;;;;;0.80;0.50;;;;;;;11.95;100.00;99946.13;4964899;28;20220;-77
2023/09/23 02:40:27;;;;;;;2.33;0.80;;;;;;;11.92;100.00;99943.59;4963293;28;20195;-77
2023/09/23 02:42:53;;;;;;;0.60;0.60;;;;;;;11.89;100.00;99943.66;4965215;28;20190;-77
2023/09/23 02:45:20;;;;;;;0.53;0.40;;;;;;;11.87;100.00;99945.44;4969702;28;20198;-78
2023/09/23 02:47:46;;;;;;;0.60;0.50;;;;;;;11.82;100.00;99949.84;4963657;28;20667;-77
2023/09/23 02:50:13;;;;;;;0.77;0.50;;;;;;;11.79;100.00;99947.34;4961536;28;20195;-78
2023/09/23 02:52:40;;;;;;;1.23;0.60;;;;;;;11.74;100.00;99947.41;4963534;28;20735;-78
2023/09/23 02:55:07;;;;;;;1.40;0.63;;;;;;;11.71;100.00;99942.28;4967065;28;20662;-77
2023/09/23 02:57:37;;;;;;;1.13;0.67;;;;;;;11.69;100.00;99947.50;4963665;28;20276;-77
2023/09/23 03:00:18;;;;;;;1.20;0.70;;;;;;;11.66;100.00;99952.72;4957218;28;20642;-78
2023/09/23 03:02:52;;;;;;;0.80;0.60;;;;;;;11.63;100.00;99963.19;4963095;28;20197;-77
2023/09/23 03:05:18;;;;;;;1.00;0.63;;;;;;;11.61;100.00;99959.75;4961945;28;20217;-77
2023/09/23 03:07:50;;;;;;;1.10;0.40;;;;;;;11.60;100.00;99965.81;4961673;28;20268;-78
2023/09/23 03:10:29;;;;;;;0.60;0.50;;;;;;;11.61;100.00;99956.28;4955770;28;20415;-77
2023/09/23 03:13:02;;;;;;;1.50;0.57;;;;;;;11.59;100.00;99971.88;4960937;28;20277;-77
2023/09/23 03:15:33;;;;;;;0.97;0.57;;;;;;;11.56;100.00;99967.63;4963752;28;20201;-77
2023/09/23 03:18:00;;;;;;;1.00;0.60;;;;;;;11.54;100.00;99960.72;4964440;28;20224;-77
2023/09/23 03:20:26;;;;;;;1.37;0.70;;;;;;;11.52;100.00;99968.56;4959426;28;20669;-77
2023/09/23 03:22:54;;;;;;;0.90;0.50;;;;;;;11.50;100.00;99977.22;4964234;28;20222;-77
2023/09/23 03:25:20;;;;;;;0.90;0.50;;;;;;;11.49;100.00;99972.94;4958696;28;20214;-78
2023/09/23 03:27:51;;;;;;;0.90;0.70;;;;;;;11.47;100.00;99982.47;4950700;28;20367;-77
2023/09/23 03:30:17;;;;;;;2.40;0.80;;;;;;;11.45;100.00;99979.88;4955295;28;20242;-76
2023/09/23 03:32:44;;;;;;;0.70;0.70;;;;;;;11.45;100.00;99985.06;4959614;28;20579;-78
2023/09/23 03:35:14;;;;;;;1.23;0.87;;;;;;;11.44;100.00;99985.94;4955942;28;20236;-78
2023/09/23 03:37:40;;;;;;;1.90;0.80;;;;;;;11.44;100.00;99986.81;4955615;28;20221;-78
2023/09/23 03:40:07;;;;;;;0.40;0.40;;;;;;;11.45;100.00;99985.06;4979325;28;20182;-77
2023/09/23 03:42:33;;;;;;;0.67;0.60;;;;;;;11.44;100.00;99988.53;4979708;28;20224;-77
2023/09/23 03:44:58;;;;;;;0.60;0.50;;;;;;;11.42;100.00;99993.75;4960385;28;20277;-77
2023/09/23 03:47:25;;;;;;;1.00;0.67;;;;;;;11.40;100.00;99990.34;4961551;28;20214;-77
2023/09/23 03:49:51;;;;;;;0.60;0.50;;;;;;;11.39;100.00;99990.38;4959518;28;20688;-77
2023/09/23 03:52:16;;;;;;;0.53;0.53;;;;;;;11.40;100.00;99986.91;4962520;28;20196;-78
2023/09/23 03:54:41;;;;;;;0.63;0.63;;;;;;;11.37;100.00;99995.56;4961558;28;20220;-77
2023/09/23 03:57:07;;;;;;;0.67;0.47;;;;;;;11.37;100.00;99998.16;4964672;28;20240;-77
2023/09/23 03:59:33;;;;;;;1.90;0.90;;;;;;;11.38;100.00;100001.63;4962729;28;20639;-76
2023/09/23 04:01:59;;;;;;;0.80;0.63;;;;;;;11.36;100.00;99999.03;4962153;28;20636;-78
2023/09/23 04:04:25;;;;;;;0.87;0.57;;;;;;;11.36;100.00;100005.97;4965398;28;20238;-77
2023/09/23 04:06:50;;;;;;;1.10;1.00;;;;;;;11.36;100.00;100006.81;4966050;28;20245;-77
2023/09/23 04:09:16;;;;;;;1.47;0.60;;;;;;;11.38;100.00;100006.81;4960096;28;20226;-78
2023/09/23 04:11:41;;;;;;;0.70;0.60;;;;;;;11.39;100.00;100013.69;4965399;28;20674;-76
2023/09/23 04:14:07;;;;;;;1.53;0.60;;;;;;;11.39;100.00;100011.94;4964395;28;20194;-76
2023/09/23 04:16:33;;;;;;;0.83;0.70;;;;;;;11.39;100.00;100014.53;4964356;28;20353;-77
2023/09/23 04:18:58;;;;;;;1.50;0.70;;;;;;;11.41;100.00;100014.53;4966643;28;20187;-77
2023/09/23 04:21:25;;;;;;;2.00;0.80;;;;;;;11.40;100.00;100018.00;4961984;28;20203;-77
2023/09/23 04:23:52;;;;;;;0.97;0.60;;;;;;;11.40;100.00;100018.84;4959211;28;20217;-77
2023/09/23 04:26:21;;;;;;;1.70;0.60;;;;;;;11.40;100.00;100012.81;4962805;28;20219;-77
2023/09/23 04:28:47;;;;;;;2.10;0.67;;;;;;;11.42;100.00;100023.97;4963375;28;20216;-78
2023/09/23 04:31:13;;;;;;;2.00;0.67;;;;;;;11.42;100.00;100022.25;4966819;28;20201;-77
2023/09/23 04:33:39;;;;;;;0.73;0.60;;;;;;;11.41;100.00;100024.91;4963395;28;20191;-77
2023/09/23 04:36:09;;;;;;;1.17;0.60;;;;;;;11.41;100.00;100019.72;4967473;28;20320;-78
2023/09/23 04:38:34;;;;;;;0.70;0.60;;;;;;;11.40;100.00;100028.38;4967030;28;20265;-78
2023/09/23 04:41:01;;;;;;;0.63;0.60;;;;;;;11.38;100.00;100030.97;4962865;28;20186;-78
2023/09/23 04:43:28;;;;;;;1.33;0.70;;;;;;;11.38;100.00;100033.56;4966668;28;20420;-78
2023/09/23 04:45:53;;;;;;;0.80;0.50;;;;;;;11.36;100.00;100042.25;4959998;28;20586;-77
2023/09/23 04:48:20;;;;;;;1.20;0.90;;;;;;;11.35;100.00;100043.97;4953971;28;20182;-78
2023/09/23 04:50:46;;;;;;;0.90;0.60;;;;;;;11.33;100.00;100056.09;4962040;28;20221;-77
2023/09/23 04:53:11;;;;;;;0.70;0.50;;;;;;;11.32;100.00;100050.94;4967955;28;22345;-78
2023/09/23 04:55:37;;;;;;;1.43;0.60;;;;;;;11.31;100.00;100064.75;4966875;28;20619;-76
2023/09/23 04:58:02;;;;;;;1.13;0.60;;;;;;;11.29;100.00;100057.88;4959975;28;20217;-77
2023/09/23 05:00:32;;;;;;;1.27;0.70;;;;;;;11.27;100.00;100067.41;4960712;28;20718;-77
2023/09/23 05:02:57;;;;;;;1.10;0.60;;;;;;;11.27;100.00;100063.97;4959350;28;20206;-76
2023/09/23 05:05:23;;;;;;;0.83;0.60;;;;;;;11.27;100.00;100077.75;4943180;28;20244;-78
2023/09/23 05:07:48;;;;;;;0.50;0.50;;;;;;;11.26;100.00;100073.50;4963180;28;20214;-76
2023/09/23 05:10:13;;;;;;;1.00;0.70;;;;;;;11.27;100.00;100084.69;4947389;28;20740;-77
2023/09/23 05:12:40;;;;;;;0.60;0.50;;;;;;;11.26;100.00;100094.22;4958089;28;20202;-77
2023/09/23 05:15:09;;;;;;;0.97;0.67;;;;;;;11.27;100.00;100093.31;4964192;28;20252;-77
2023/09/23 05:17:35;;;;;;;0.80;0.50;;;;;;;11.27;100.00;100090.72;4962043;28;20205;-77
2023/09/23 05:20:02;;;;;;;1.03;0.60;;;;;;;11.30;100.00;100095.00;4963641;28;20201;-77
2023/09/23 05:22:28;;;;;;;1.00;0.57;;;;;;;11.31;100.00;100096.72;4961804;28;20197;-77
2023/09/23 05:24:57;;;;;;;0.60;0.50;;;;;;;11.36;100.00;100099.25;4961049;28;20202;-77
2023/09/23 05:27:23;;;;;;;1.63;0.70;;;;;;;11.37;100.00;100101.78;4965004;28;20211;-78
2023/09/23 05:29:50;;;;;;;0.63;0.60;;;;;;;11.41;100.00;100108.66;4961083;28;20281;-79
2023/09/23 05:32:16;;;;;;;0.57;0.50;;;;;;;11.44;100.00;100110.31;4971001;28;20194;-79
2023/09/23 05:34:42;;;;;;;0.70;0.57;;;;;;;11.47;100.00;100112.03;4962515;28;20190;-80
2023/09/23 05:37:12;;;;;;;0.50;0.50;;;;;;;11.49;100.00;100112.88;4976922;28;20302;-80
2023/09/23 05:39:44;;;;;;;1.80;0.60;;;;;;;11.51;100.00;100114.56;4971527;28;20225;-78
2023/09/23 05:42:09;;;;;;;1.13;0.70;;;;;;;11.55;100.00;100129.19;4962321;28;20293;-78
2023/09/23 05:44:35;;;;;;;2.00;0.63;;;;;;;11.56;100.00;100135.22;4958306;28;20293;-77
2023/09/23 05:47:00;;;;;;;0.70;0.70;;;;;;;11.56;100.00;100130.03;4959986;28;20220;-78
2023/09/23 05:49:26;;;;;;;0.70;0.70;;;;;;;11.55;100.00;100136.97;4962151;28;20584;-78
2023/09/23 05:51:54;;;;;;;0.73;0.57;;;;;;;11.58;100.00;100144.66;4961992;28;20193;-78
2023/09/23 05:54:20;;;;;;;1.07;0.70;;;;;;;11.62;100.00;100137.72;4964360;28;20236;-78
2023/09/23 05:56:45;;;;;;;0.67;0.67;;;;;;;11.67;100.00;100145.41;4955831;28;20704;-78
2023/09/23 05:59:11;;;;;;;1.70;0.87;;;;;;;11.71;100.00;100141.91;4961609;28;20204;-77
2023/09/23 06:01:38;;;;;;;0.80;0.80;;;;;;;11.77;100.00;100146.13;4965762;28;20194;-78
2023/09/23 06:04:05;;;;;;;0.80;0.70;;;;;;;11.81;100.00;100152.94;4969548;28;20189;-78
2023/09/23 06:06:30;;;;;;;0.90;0.80;;;;;;;11.88;100.00;100155.41;4961878;28;20227;-78
2023/09/23 06:08:57;;;;;;;0.83;0.70;;;;;;;11.95;100.00;100155.34;4964443;28;20201;-78
2023/09/23 06:11:23;;;;;;;0.83;0.70;;;;;;;12.02;100.00;100154.38;4960634;28;20658;-78
2023/09/23 06:13:48;;;;;;;0.63;0.60;;;;;;;12.08;100.00;100161.22;4957369;28;20273;-77
2023/09/23 06:16:16;;;;;;;1.03;0.90;;;;;;;12.14;100.00;100166.28;4958594;28;20320;-79
2023/09/23 06:18:42;;;;;;;1.00;0.90;;;;;;;12.19;100.00;100170.50;4960389;28;20268;-79
2023/09/23 06:21:08;;;;;;;0.77;0.70;;;;;;;12.24;100.00;100177.34;4958866;28;20700;-78
2023/09/23 06:23:34;;;;;;;1.17;0.90;;;;;;;12.27;100.00;100183.34;4952643;28;20206;-79
2023/09/23 06:26:01;;;;;;;1.67;0.90;;;;;;;12.32;100.00;100191.91;4951746;28;20937;-78
2023/09/23 06:28:27;;;;;;;1.20;0.73;;;;;;;12.38;100.00;100192.69;4951483;28;20194;-78
2023/09/23 06:30:53;;;;;;;1.07;0.97;;;;;;;12.43;100.00;100191.72;4959913;28;20193;-79
2023/09/23 06:33:19;;;;;;;1.77;0.87;;;;;;;12.48;100.00;100196.81;4961340;28;20306;-79
2023/09/23 06:35:45;;;;;;;1.00;0.83;;;;;;;12.55;100.00;100201.03;4969174;28;20279;-78
2023/09/23 06:38:11;;;;;;;1.20;0.90;;;;;;;12.62;100.00;100205.19;4958730;28;20215;-78
2023/09/23 06:40:36;;;;;;;1.50;0.80;;;;;;;12.70;100.00;100212.84;4960268;28;20199;-78
2023/09/23 06:43:02;;;;;;;2.73;1.23;;;;;;;12.77;100.00;100214.47;4962597;28;20191;-79
2023/09/23 06:45:27;;;;;;;2.80;1.00;;;;;;;12.87;100.00;100214.25;4957924;28;20313;-78
2023/09/23 06:47:52;;;;;;;1.30;0.90;;;;;;;12.88;100.00;100222.00;4959230;28;20208;-78
2023/09/23 06:50:19;;;;;;;1.53;0.83;;;;;;;12.87;100.00;100215.09;4964247;28;20227;-78
2023/09/23 06:52:44;;;;;;;1.67;0.80;;;;;;;12.90;100.00;100222.00;4968530;28;20282;-78
2023/09/23 06:55:09;;;;;;;1.40;1.00;;;;;;;12.95;100.00;100218.44;4960250;28;20751;-79
2023/09/23 06:57:35;;;;;;;1.43;0.90;;;;;;;13.00;100.00;100230.47;4968145;28;20700;-78
2023/09/23 07:00:06;;;;;;;1.70;1.13;;;;;;;13.03;100.00;100236.47;4971107;28;20192;-78
2023/09/23 07:02:32;;;;;;;2.47;1.10;;;;;;;13.06;100.00;100228.59;4968069;28;20212;-78
2023/09/23 07:04:57;;;;;;;1.97;1.10;;;;;;;13.07;100.00;100239.84;4967186;28;20218;-78
2023/09/23 07:07:23;;;;;;;1.40;0.97;;;;;;;13.09;100.00;100241.50;4967713;28;20705;-79
2023/09/23 07:09:48;;;;;;;1.20;0.90;;;;;;;13.08;100.00;100241.56;4966694;28;20677;-78
2023/09/23 07:12:14;;;;;;;3.13;1.00;;;;;;;13.10;100.00;100245.81;4960772;28;20184;-78
2023/09/23 07:14:40;;;;;;;1.80;0.90;;;;;;;13.10;100.00;100250.19;4968444;28;20203;-79
2023/09/23 07:17:06;;;;;;;1.10;0.80;;;;;;;13.11;100.00;100244.09;4960248;28;20215;-78
2023/09/23 07:19:32;;;;;;;2.37;1.30;;;;;;;13.18;100.00;100247.44;4965683;28;20552;-80
2023/09/23 07:21:58;;;;;;;1.67;0.97;;;;;;;13.35;100.00;100247.06;4957840;28;21158;-78
2023/09/23 07:24:26;;;;;;;1.60;1.03;;;;;;;13.43;100.00;100247.81;4959295;28;20210;-79
2023/09/23 07:26:54;;;;;;;1.53;0.90;;;;;;;13.43;100.00;100253.00;4964506;28;20308;-78
2023/09/23 07:29:19;;;;;;;1.70;1.20;;;;;;;13.48;100.00;100250.31;4963842;28;22219;-78
2023/09/23 07:31:44;;;;;;;1.30;1.00;;;;;;;13.53;100.00;100253.66;4966759;28;20228;-78
2023/09/23 07:34:11;;;;;;;0.90;0.80;;;;;;;13.67;100.00;100263.75;4961601;28;20187;-79
2023/09/23 07:36:36;;;;;;;1.47;1.10;;;;;;;13.77;100.00;100261.81;4970544;28;20250;-80
2023/09/23 07:39:02;;;;;;;1.20;1.10;;;;;;;13.77;100.00;100260.03;4973134;28;20182;-78
2023/09/23 07:41:27;;;;;;;1.27;1.00;;;;;;;13.87;100.00;100271.09;4957114;28;20190;-77
2023/09/23 07:43:52;;;;;;;1.93;0.90;;;;;;;13.90;100.00;100263.22;4967571;28;20195;-78
2023/09/23 07:46:18;;;;;;;1.77;1.20;;;;;;;14.01;100.00;100276.84;4961142;28;20284;-78
2023/09/23 07:48:43;;;;;;;3.20;1.00;;;;;;;14.11;100.00;100277.47;4959470;28;20190;-79
2023/09/23 07:51:09;;;;;;;2.90;1.00;;;;;;;14.15;100.00;100279.13;4960512;28;20216;-77
2023/09/23 07:53:35;;;;;;;1.60;1.13;;;;;;;14.20;100.00;100280.78;4962816;28;20200;-79
2023/09/23 07:56:00;;;;;;;1.53;1.00;;;;;;;14.25;100.00;100284.09;4956657;28;20186;-78
2023/09/23 07:58:25;;;;;;;1.47;0.90;;;;;;;14.35;100.00;100288.19;4957508;28;20243;-77
2023/09/23 08:00:52;;;;;;;2.13;1.20;;;;;;;14.49;100.00;100295.66;4959766;28;20213;-77
2023/09/23 08:03:17;;;;;;;1.43;0.90;;;;;;;14.55;100.00;100295.50;4954871;28;20199;-77
2023/09/23 08:05:42;;;;;;;1.17;1.00;;;;;;;14.66;100.00;100310.88;4963262;28;20228;-76
2023/09/23 08:08:08;;;;;;;1.97;1.20;;;;;;;14.77;100.00;100314.06;4956921;28;20257;-77
2023/09/23 08:10:33;;;;;;;1.30;1.03;;;;;;;14.86;100.00;100317.31;4961363;28;20213;-77
2023/09/23 08:12:58;;;;;;;1.97;1.10;;;;;;;14.96;100.00;100321.41;4960730;28;20270;-77
2023/09/23 08:15:24;;;;;;;2.20;1.23;;;;;;;15.09;100.00;100327.13;4965775;28;20178;-77
2023/09/23 08:17:49;;;;;;;1.30;0.90;;;;;;;15.19;100.00;100331.22;4961331;28;20200;-77
2023/09/23 08:20:17;;;;;;;1.83;0.90;;;;;;;15.25;100.00;100327.59;4978288;28;20189;-76
2023/09/23 08:22:53;;;;;;;1.40;0.93;;;;;;;15.43;100.00;100326.19;4954524;28;20664;-78
2023/09/23 08:25:18;;;;;;;0.90;0.80;;;;;;;15.56;100.00;100321.50;4961847;28;20540;-78
2023/09/23 08:27:44;;;;;;;1.40;1.20;;;;;;;15.64;100.00;100326.50;4962046;28;20272;-78
2023/09/23 08:30:10;;;;;;;2.77;1.20;;;;;;;15.77;100.00;100324.34;4963632;28;20190;-78
2023/09/23 08:32:41;;;;;;;1.40;1.10;;;;;;;15.89;100.00;100323.16;4974317;28;20686;-77
2023/09/23 08:35:08;;;;;;;1.83;1.10;;;;;;;15.88;100.00;100330.16;4963637;28;20180;-77
2023/09/23 08:37:34;;;;;;;2.43;1.57;;;;;;;16.04;100.00;100342.72;4955203;28;20211;-77
2023/09/23 08:40:00;;;;;;;3.83;1.60;;;;;;;16.00;100.00;100342.84;4966988;28;20197;-77
2023/09/23 08:42:27;;;;;;;2.57;1.47;;;;;;;16.06;100.00;100347.00;4960892;28;20569;-78
2023/09/23 08:44:53;;;;;;;2.13;1.30;;;;;;;16.10;100.00;100342.53;4954159;28;20221;-78
2023/09/23 08:47:20;;;;;;;2.17;1.20;;;;;;;16.18;99.66;100348.38;4961473;28;20261;-76
2023/09/23 08:49:49;;;;;;;1.17;0.93;;;;;;;16.40;98.44;100355.53;4956463;28;20555;-77
2023/09/23 08:52:18;;;;;;;2.43;1.20;;;;;;;16.49;98.11;100355.22;4956349;28;20284;-77
2023/09/23 08:54:49;;;;;;;1.63;1.07;;;;;;;16.55;98.28;100352.41;4962815;28;20207;-76
2023/09/23 08:57:16;;;;;;;2.50;1.00;;;;;;;16.68;98.13;100357.22;4965723;28;20218;-77
2023/09/23 08:59:42;;;;;;;1.50;1.20;;;;;;;16.68;97.08;100365.06;4959490;28;20896;-76
2023/09/23 09:02:07;;;;;;;0.87;0.87;;;;;;;16.67;96.84;100365.97;4966864;28;20202;-77
2023/09/23 09:04:33;;;;;;;0.73;0.60;;;;;;;16.70;96.24;100371.09;4955850;28;20225;-77
2023/09/23 09:06:58;;;;;;;1.30;0.80;;;;;;;16.81;95.95;100374.19;4955357;28;20333;-78
2023/09/23 09:09:24;;;;;;;1.37;0.80;;;;;;;16.92;95.90;100377.34;4965557;28;20673;-77
2023/09/23 09:11:58;;;;;;;1.10;1.00;;;;;;;16.83;95.51;100374.16;4961843;28;20540;-78
2023/09/23 09:14:24;;;;;;;3.30;1.13;;;;;;;16.74;95.38;100375.31;4960596;28;20196;-78
2023/09/23 09:16:49;;;;;;;1.80;1.20;;;;;;;16.70;94.64;100378.94;4959056;28;20717;-78
2023/09/23 09:19:15;;;;;;;2.20;1.10;;;;;;;16.76;94.85;100383.97;4964779;28;20275;-77
2023/09/23 09:21:43;;;;;;;1.40;1.00;;;;;;;16.92;94.06;100381.69;4961399;28;20204;-76
2023/09/23 09:24:09;;;;;;;1.43;1.10;;;;;;;16.98;92.93;100372.81;4964195;28;20250;-77
2023/09/23 09:26:38;;;;;;;2.30;0.97;;;;;;;16.95;91.78;100371.16;4960749;28;20241;-77
2023/09/23 09:29:03;;;;;;;1.10;0.90;;;;;;;17.02;91.96;100374.41;4960430;28;20205;-77
2023/09/23 09:31:33;;;;;;;1.03;0.80;;;;;;;17.06;89.67;100374.25;4960005;28;20267;-77
2023/09/23 09:34:11;;;;;;;1.00;0.60;;;;;;;17.23;91.12;100366.75;4976167;28;20197;-78
2023/09/23 09:36:38;;;;;;;1.27;0.80;;;;;;;17.33;90.71;100368.94;4971592;28;20232;-78
2023/09/23 09:39:07;;;;;;;1.90;1.00;;;;;;;17.24;88.45;100373.69;4967165;28;20200;-76
2023/09/23 09:41:46;;;;;;;1.00;0.90;;;;;;;17.44;88.41;100367.75;4958176;28;20277;-76
2023/09/23 09:44:15;;;;;;;1.53;0.90;;;;;;;17.57;88.04;100363.75;4957703;28;20202;-78
2023/09/23 09:46:42;;;;;;;2.00;1.07;;;;;;;17.64;88.41;100362.59;4956068;28;20264;-77
2023/09/23 09:49:08;;;;;;;1.50;0.83;;;;;;;17.60;87.60;100358.41;4957335;28;20975;-78
2023/09/23 09:51:35;;;;;;;1.90;1.00;;;;;;;17.75;87.08;100359.59;4959980;28;20193;-78
2023/09/23 09:54:02;;;;;;;3.07;1.13;;;;;;;17.71;86.90;100351.91;4956851;28;20659;-78
2023/09/23 09:56:29;;;;;;;2.33;0.90;;;;;;;17.75;88.12;100356.97;4958103;28;20297;-78
2023/09/23 09:58:59;;;;;;;2.27;0.90;;;;;;;17.81;87.20;100356.75;4960371;28;20325;-77
2023/09/23 10:01:24;;;;;;;2.90;1.10;;;;;;;17.93;84.86;100351.94;4957821;28;20200;-78
2023/09/23 10:03:53;;;;;;;1.47;1.00;;;;;;;18.02;84.62;100351.59;4953635;28;20212;-78
2023/09/23 10:06:21;;;;;;;1.00;0.60;;;;;;;18.18;84.81;100354.50;4958364;28;20250;-78
2023/09/23 10:08:48;;;;;;;1.70;0.80;;;;;;;18.31;85.01;100346.97;4952657;28;20889;-78
2023/09/23 10:11:15;;;;;;;1.20;0.80;;;;;;;18.28;84.75;100350.59;4959296;28;20190;-77
2023/09/23 10:13:42;;;;;;;2.00;0.63;;;;;;;18.28;85.11;100347.97;4958678;28;20190;-78
2023/09/23 10:16:17;;;;;;;2.90;1.10;;;;;;;18.19;84.75;100340.50;4958516;28;20673;-79
2023/09/23 10:18:43;;;;;;;2.17;1.30;;;;;;;18.21;83.85;100338.66;4955053;28;20273;-77
2023/09/23 10:21:21;;;;;;;1.43;0.93;;;;;;;18.44;82.71;100339.50;4955510;28;20250;-78
2023/09/23 10:23:46;;;;;;;1.57;1.00;;;;;;;18.58;83.68;100336.31;4957760;28;20705;-77
2023/09/23 10:26:14;;;;;;;2.23;1.00;;;;;;;18.51;83.62;100343.56;4957081;28;20225;-77
2023/09/23 10:28:40;;;;;;;2.63;0.90;;;;;;;18.71;83.54;100347.13;4959840;28;21399;-78
2023/09/23 10:31:06;;;;;;;1.17;0.70;;;;;;;18.97;82.04;100339.97;4961467;28;20233;-76
2023/09/23 10:33:34;;;;;;;1.43;0.80;;;;;;;19.06;81.41;100338.72;4957947;28;20685;-78
2023/09/23 10:36:00;;;;;;;2.17;1.00;;;;;;;19.07;82.04;100343.88;4962286;28;20209;-77
2023/09/23 10:38:30;;;;;;;1.53;0.80;;;;;;;19.09;81.15;100344.66;4959756;28;20208;-77
2023/09/23 10:40:55;;;;;;;0.97;0.80;;;;;;;19.00;81.85;100345.03;4959814;28;20185;-77
2023/09/23 10:43:21;;;;;;;1.47;0.80;;;;;;;18.85;81.79;100344.75;4958790;28;20201;-77
2023/09/23 10:45:54;;;;;;;1.83;0.90;;;;;;;18.80;81.35;100335.38;4959068;28;20283;-79
2023/09/23 10:48:20;;;;;;;2.97;1.33;;;;;;;18.75;82.33;100348.69;4957549;28;20209;-77
2023/09/23 10:50:46;;;;;;;1.80;1.30;;;;;;;18.78;80.70;100351.19;4958416;28;20186;-77
2023/09/23 10:53:13;;;;;;;1.33;0.70;;;;;;;19.11;81.19;100358.56;4959658;28;20197;-77
2023/09/23 10:55:41;;;;;;;1.00;0.70;;;;;;;19.37;80.95;100355.69;4960403;28;20671;-77
2023/09/23 10:58:08;;;;;;;2.07;0.80;;;;;;;19.69;80.25;100358.63;4961430;28;20213;-78
2023/09/23 11:00:36;;;;;;;1.97;0.90;;;;;;;19.68;78.37;100360.44;4964737;28;20197;-78
2023/09/23 11:03:11;;;;;;;1.73;0.97;;;;;;;20.07;78.34;100351.63;4964614;28;20206;-77
2023/09/23 11:05:38;;;;;;;1.10;0.90;;;;;;;20.09;77.44;100349.78;4962445;28;21050;-77
2023/09/23 11:08:10;;;;;;;3.57;1.20;;;;;;;20.32;78.05;100347.81;4966827;28;20261;-77
2023/09/23 11:10:38;;;;;;;1.07;0.90;;;;;;;20.29;77.78;100352.34;4967424;28;20662;-78
2023/09/23 11:13:05;;;;;;;1.50;0.83;;;;;;;19.92;77.13;100357.59;4965226;28;20193;-78
2023/09/23 11:15:30;;;;;;;0.93;0.80;;;;;;;20.11;78.21;100349.72;4965172;28;20197;-77
2023/09/23 11:17:56;;;;;;;2.17;1.10;;;;;;;20.33;77.69;100357.41;4961220;28;20225;-78
2023/09/23 11:20:32;;;;;;;1.83;0.97;;;;;;;20.44;77.00;100356.88;4962723;28;20724;-78